EGPF/GLA METAR and TAF weather

Enter ICAO airport designator
Station Type Date Time Source
EGPF METAR 2020/04/05 22:20 UTC NOAA

EGPF 052220Z AUTO 14012KT 9999 -RA //////TCU 14/09 Q0998


Station Type Date Time Source
EGPF Decoded METAR 2020/04/05 22:20 UTC NOAA

Glasgow Airport, United Kingdom (EGPF) 55-52N 004-26W 0M
Apr 05, 2020 - 06:20 PM EDT / 2020.04.05 2220 UTC
Wind: from the SE (140 degrees) at 14 MPH (12 KT):0
Visibility: greater than 7 mile(s):0
Weather: light rain; Towering cumulus clouds observed
Temperature: 57 F (14 C)
Dew Point: 48 F (9 C)
Relative Humidity: 71%
Pressure (altimeter): 29.47 in. Hg (0998 hPa)
ob: EGPF 052220Z AUTO 14012KT 9999 -RA //////TCU 14/09 Q0998
cycle: 22

Station Type Date Time Source
EGPF TAF 2020/04/05 18:09 UTC NOAA

TAF EGPF 051657Z 0518/0618 14009KT 9999 FEW030 PROB40
TEMPO 0518/0603 6000 RA BKN012 PROB30
TEMPO 0518/0524 16018G28KT
BECMG 0600/0603 21014KT PROB30
TEMPO 0603/0616 24018G30KT PROB30
TEMPO 0610/0618 6000 SHRA

Example: see airport list